Time;durP1;ratioP1;P1;durP2;ratioP2;P2;SDS_P1;SDS_P2;PMS_P1;PMS_P2;Temp;Humidity;BMP_temperature;BMP_pressure;BME280_temperature;BME280_humidity;BME280_pressure;Samples;Min_cycle;Max_cycle;Signal;HPM_P1;HPM_P2
2023/06/03 00:01:40;;;;;;;1.25;0.77;;;;;;;;;;5037160;28;20438;-73
2023/06/03 00:04:06;;;;;;;1.20;0.70;;;;;;;;;;5038423;28;20025;-73
2023/06/03 00:06:32;;;;;;;0.98;0.70;;;;;;;;;;5045856;28;20416;-73
2023/06/03 00:08:58;;;;;;;0.43;0.43;;;;;;;;;;5048092;28;20032;-73
2023/06/03 00:11:27;;;;;;;2.58;0.93;;;;;;;;;;5043995;28;20475;-73
2023/06/03 00:13:56;;;;;;;0.30;0.30;;;;;;;;;;5035143;28;20120;-72
2023/06/03 00:16:22;;;;;;;0.60;0.60;;;;;;;;;;5048519;28;20028;-73
2023/06/03 00:18:48;;;;;;;1.65;0.70;;;;;;;;;;5047361;28;20032;-73
2023/06/03 00:21:16;;;;;;;0.77;0.70;;;;;;;;;;5039003;28;20033;-72
2023/06/03 00:23:45;;;;;;;0.40;0.40;;;;;;;;;;5036388;28;20547;-73
2023/06/03 00:26:11;;;;;;;0.70;0.60;;;;;;;;;;5033141;28;20041;-72
2023/06/03 00:28:37;;;;;;;0.68;0.50;;;;;;;;;;5043607;28;20028;-73
2023/06/03 00:31:03;;;;;;;0.40;0.40;;;;;;;;;;5043120;28;20388;-73
2023/06/03 00:33:29;;;;;;;0.60;0.60;;;;;;;;;;5036953;28;20021;-73
2023/06/03 00:35:55;;;;;;;0.63;0.50;;;;;;;;;;5039466;28;20026;-73
2023/06/03 00:38:21;;;;;;;1.55;0.70;;;;;;;;;;5032129;28;20033;-73
2023/06/03 00:40:53;;;;;;;0.80;0.52;;;;;;;;;;5041634;28;20029;-73
2023/06/03 00:43:19;;;;;;;1.40;0.43;;;;;;;;;;5048176;28;20025;-72
2023/06/03 00:45:45;;;;;;;0.73;0.40;;;;;;;;;;5035565;28;20126;-72
2023/06/03 00:48:14;;;;;;;0.40;0.40;;;;;;;;;;5044913;28;20654;-73
2023/06/03 00:50:41;;;;;;;0.90;0.68;;;;;;;;;;5049432;28;20238;-73
2023/06/03 00:53:08;;;;;;;0.50;0.50;;;;;;;;;;5036151;28;20031;-72
2023/06/03 00:55:34;;;;;;;0.47;0.47;;;;;;;;;;5031882;28;20722;-73
2023/06/03 00:58:00;;;;;;;1.10;0.55;;;;;;;;;;5041824;28;20667;-72
2023/06/03 01:00:29;;;;;;;0.63;0.63;;;;;;;;;;5043063;28;20037;-72
2023/06/03 01:02:56;;;;;;;0.73;0.50;;;;;;;;;;5031507;28;20075;-73
2023/06/03 01:05:22;;;;;;;0.80;0.60;;;;;;;;;;5030482;28;20061;-73
2023/06/03 01:08:00;;;;;;;0.50;0.50;;;;;;;;;;5046560;28;20025;-73
2023/06/03 01:10:54;;;;;;;1.23;0.60;;;;;;;;;;5040678;28;20031;-73
2023/06/03 01:13:23;;;;;;;1.05;0.47;;;;;;;;;;5043527;28;20426;-73
2023/06/03 01:15:53;;;;;;;0.52;0.50;;;;;;;;;;5042895;28;20036;-72
2023/06/03 01:18:19;;;;;;;0.80;0.52;;;;;;;;;;5042374;28;20032;-73
2023/06/03 01:20:48;;;;;;;1.00;0.50;;;;;;;;;;5035161;28;20029;-72
2023/06/03 01:23:23;;;;;;;0.32;0.32;;;;;;;;;;5044483;28;20044;-72
2023/06/03 01:25:51;;;;;;;0.38;0.38;;;;;;;;;;5036706;28;20077;-73
2023/06/03 01:28:17;;;;;;;0.40;0.40;;;;;;;;;;5031805;28;20021;-72
2023/06/03 01:30:44;;;;;;;0.82;0.82;;;;;;;;;;5036062;28;20075;-73
2023/06/03 01:33:10;;;;;;;0.70;0.60;;;;;;;;;;5037625;28;20024;-72
2023/06/03 01:35:36;;;;;;;0.45;0.45;;;;;;;;;;5040692;28;20040;-72
2023/06/03 01:38:02;;;;;;;0.52;0.52;;;;;;;;;;5036781;28;20063;-73
2023/06/03 01:40:29;;;;;;;0.57;0.57;;;;;;;;;;5031537;28;20499;-72
2023/06/03 01:42:55;;;;;;;0.70;0.60;;;;;;;;;;5032557;28;20108;-72
2023/06/03 01:45:21;;;;;;;1.83;0.60;;;;;;;;;;5031433;28;20475;-72
2023/06/03 01:47:47;;;;;;;0.50;0.50;;;;;;;;;;5046849;28;20107;-73
2023/06/03 01:50:13;;;;;;;0.40;0.40;;;;;;;;;;5036408;28;20099;-72
2023/06/03 01:52:39;;;;;;;0.60;0.30;;;;;;;;;;5035066;28;20025;-76
2023/06/03 01:55:05;;;;;;;0.85;0.50;;;;;;;;;;5037291;28;20143;-76
2023/06/03 01:57:31;;;;;;;0.50;0.40;;;;;;;;;;5036899;28;20135;-76
2023/06/03 01:59:57;;;;;;;0.60;0.40;;;;;;;;;;5040800;28;20803;-76
2023/06/03 02:02:26;;;;;;;0.60;0.45;;;;;;;;;;5035097;28;20040;-76
2023/06/03 02:04:56;;;;;;;0.43;0.40;;;;;;;;;;5032039;28;20048;-76
2023/06/03 02:07:25;;;;;;;0.22;0.22;;;;;;;;;;5042883;28;20045;-76
2023/06/03 02:09:55;;;;;;;0.43;0.43;;;;;;;;;;5037654;28;20049;-76
2023/06/03 02:12:21;;;;;;;0.50;0.40;;;;;;;;;;5049926;28;20047;-77
2023/06/03 02:14:47;;;;;;;0.93;0.57;;;;;;;;;;5059819;28;20025;-76
2023/06/03 02:17:15;;;;;;;3.47;0.55;;;;;;;;;;5047027;28;20056;-76
2023/06/03 02:19:41;;;;;;;0.47;0.45;;;;;;;;;;5038388;28;20032;-77
2023/06/03 02:22:07;;;;;;;1.00;0.60;;;;;;;;;;5032994;28;20037;-76
2023/06/03 02:24:33;;;;;;;0.88;0.60;;;;;;;;;;5041908;28;20033;-76
2023/06/03 02:27:01;;;;;;;0.40;0.40;;;;;;;;;;5043008;28;20498;-76
2023/06/03 02:29:29;;;;;;;0.20;0.20;;;;;;;;;;5046867;28;20033;-76
2023/06/03 02:31:55;;;;;;;0.95;0.43;;;;;;;;;;5047660;28;20033;-76
2023/06/03 02:34:22;;;;;;;0.68;0.40;;;;;;;;;;5047363;28;20064;-76
2023/06/03 02:36:49;;;;;;;0.40;0.30;;;;;;;;;;5033998;28;20037;-76
2023/06/03 02:39:16;;;;;;;0.57;0.50;;;;;;;;;;5039054;28;20032;-76
2023/06/03 02:41:42;;;;;;;0.88;0.45;;;;;;;;;;5044103;28;20104;-77
2023/06/03 02:44:08;;;;;;;0.93;0.38;;;;;;;;;;5037991;28;20086;-76
2023/06/03 02:46:34;;;;;;;0.40;0.38;;;;;;;;;;5034563;28;20033;-76
2023/06/03 02:49:03;;;;;;;2.45;0.45;;;;;;;;;;5046379;28;20017;-76
2023/06/03 02:51:29;;;;;;;0.60;0.60;;;;;;;;;;5047387;28;20021;-76
2023/06/03 02:53:55;;;;;;;1.65;0.63;;;;;;;;;;5040161;28;20496;-76
2023/06/03 02:56:22;;;;;;;0.98;0.40;;;;;;;;;;5041625;28;20021;-76
2023/06/03 02:58:48;;;;;;;0.55;0.38;;;;;;;;;;5061593;28;20125;-76
2023/06/03 03:01:14;;;;;;;0.40;0.40;;;;;;;;;;5052952;28;20055;-76
2023/06/03 03:03:40;;;;;;;0.55;0.40;;;;;;;;;;5050984;28;20527;-76
2023/06/03 03:06:07;;;;;;;0.55;0.47;;;;;;;;;;5043556;28;20037;-76
2023/06/03 03:08:33;;;;;;;2.50;0.50;;;;;;;;;;5044989;28;20526;-76
2023/06/03 03:10:59;;;;;;;0.60;0.60;;;;;;;;;;5047476;28;20143;-76
2023/06/03 03:13:25;;;;;;;0.47;0.40;;;;;;;;;;5040782;28;20022;-75
2023/06/03 03:15:54;;;;;;;0.82;0.45;;;;;;;;;;5047208;28;20025;-75
2023/06/03 03:18:20;;;;;;;0.40;0.40;;;;;;;;;;5041006;28;20536;-76
2023/06/03 03:20:46;;;;;;;0.52;0.32;;;;;;;;;;5045606;28;20033;-76
2023/06/03 03:23:13;;;;;;;0.70;0.50;;;;;;;;;;5051236;28;20028;-76
2023/06/03 03:25:40;;;;;;;0.30;0.30;;;;;;;;;;5050751;28;20064;-76
2023/06/03 03:28:06;;;;;;;0.82;0.50;;;;;;;;;;5045754;28;20147;-76
2023/06/03 03:30:32;;;;;;;0.65;0.47;;;;;;;;;;5046527;28;20099;-76
2023/06/03 03:32:59;;;;;;;0.57;0.45;;;;;;;;;;5043476;28;20025;-76
2023/06/03 03:35:25;;;;;;;0.30;0.30;;;;;;;;;;5041985;28;20546;-76
2023/06/03 03:37:59;;;;;;;0.35;0.35;;;;;;;;;;5030533;28;20044;-76
2023/06/03 03:40:25;;;;;;;0.55;0.45;;;;;;;;;;5041934;28;20484;-75
2023/06/03 03:42:52;;;;;;;10.18;0.95;;;;;;;;;;5037374;28;20030;-76
2023/06/03 03:45:22;;;;;;;0.30;0.30;;;;;;;;;;5042863;28;20063;-76
2023/06/03 03:47:50;;;;;;;1.00;0.45;;;;;;;;;;5030750;28;20022;-76
2023/06/03 03:50:24;;;;;;;0.47;0.47;;;;;;;;;;5048259;28;20031;-76
2023/06/03 03:52:50;;;;;;;0.68;0.38;;;;;;;;;;5035670;28;20383;-75
2023/06/03 03:55:16;;;;;;;0.30;0.30;;;;;;;;;;5049750;28;20040;-76
2023/06/03 03:57:42;;;;;;;0.90;0.32;;;;;;;;;;5047700;28;20078;-76
2023/06/03 04:00:09;;;;;;;0.52;0.50;;;;;;;;;;5046715;28;20037;-76
2023/06/03 04:02:39;;;;;;;0.57;0.38;;;;;;;;;;5038124;28;20034;-76
2023/06/03 04:05:05;;;;;;;0.17;0.17;;;;;;;;;;5037486;28;20582;-76
2023/06/03 04:07:33;;;;;;;0.30;0.30;;;;;;;;;;5043686;28;20404;-76
2023/06/03 04:09:59;;;;;;;1.15;0.70;;;;;;;;;;5054028;28;20027;-76
2023/06/03 04:12:29;;;;;;;0.32;0.32;;;;;;;;;;5039080;28;20021;-75
2023/06/03 04:14:56;;;;;;;0.73;0.43;;;;;;;;;;5039081;28;20090;-76
2023/06/03 04:17:25;;;;;;;1.08;0.73;;;;;;;;;;5050039;28;20033;-76
2023/06/03 04:19:52;;;;;;;0.30;0.30;;;;;;;;;;5040575;28;20067;-76
2023/06/03 04:22:20;;;;;;;0.22;0.22;;;;;;;;;;5037519;28;20028;-77
2023/06/03 04:24:46;;;;;;;0.43;0.35;;;;;;;;;;5039813;28;20021;-76
2023/06/03 04:27:12;;;;;;;0.65;0.40;;;;;;;;;;5049295;28;20036;-76
2023/06/03 04:29:38;;;;;;;0.40;0.40;;;;;;;;;;5047670;28;20013;-76
2023/06/03 04:32:04;;;;;;;0.35;0.32;;;;;;;;;;5031496;28;20057;-76
2023/06/03 04:34:30;;;;;;;1.10;0.45;;;;;;;;;;5046873;28;20422;-76
2023/06/03 04:36:57;;;;;;;0.50;0.43;;;;;;;;;;5044718;28;20036;-76
2023/06/03 04:39:23;;;;;;;0.60;0.35;;;;;;;;;;5041833;28;20534;-76
2023/06/03 04:41:49;;;;;;;0.50;0.50;;;;;;;;;;5044789;28;20029;-78
2023/06/03 04:44:15;;;;;;;0.77;0.43;;;;;;;;;;5044513;28;20066;-75
2023/06/03 04:46:45;;;;;;;0.30;0.30;;;;;;;;;;5043022;28;20029;-75
2023/06/03 04:49:11;;;;;;;0.75;0.50;;;;;;;;;;5044513;28;20032;-76
2023/06/03 04:51:40;;;;;;;0.40;0.40;;;;;;;;;;5047223;28;20033;-75
2023/06/03 04:54:06;;;;;;;0.35;0.35;;;;;;;;;;5044418;28;20081;-76
2023/06/03 04:56:32;;;;;;;0.40;0.40;;;;;;;;;;5037831;28;20510;-77
2023/06/03 04:59:00;;;;;;;0.50;0.47;;;;;;;;;;5048449;28;20025;-76
2023/06/03 05:01:26;;;;;;;0.38;0.30;;;;;;;;;;5048318;28;20029;-76
2023/06/03 05:03:53;;;;;;;0.30;0.30;;;;;;;;;;5048179;28;20154;-76
2023/06/03 05:06:20;;;;;;;0.32;0.25;;;;;;;;;;5043315;28;20072;-76
2023/06/03 05:08:49;;;;;;;1.08;0.60;;;;;;;;;;5041721;28;20196;-77
2023/06/03 05:11:16;;;;;;;0.68;0.47;;;;;;;;;;5037466;28;20040;-76
2023/06/03 05:13:42;;;;;;;0.55;0.50;;;;;;;;;;5049019;28;20025;-76
2023/06/03 05:16:08;;;;;;;0.45;0.30;;;;;;;;;;5045137;28;20020;-76
2023/06/03 05:18:35;;;;;;;0.70;0.43;;;;;;;;;;5035315;28;20030;-77
2023/06/03 05:21:02;;;;;;;0.32;0.32;;;;;;;;;;5039807;28;20079;-76
2023/06/03 05:23:28;;;;;;;0.30;0.30;;;;;;;;;;5048326;28;20481;-76
2023/06/03 05:25:54;;;;;;;0.95;0.40;;;;;;;;;;5037675;28;20128;-77
2023/06/03 05:28:20;;;;;;;0.52;0.32;;;;;;;;;;5034751;28;20025;-76
2023/06/03 05:30:46;;;;;;;0.28;0.28;;;;;;;;;;5049335;28;20028;-76
2023/06/03 05:33:24;;;;;;;0.50;0.50;;;;;;;;;;5035895;28;20048;-76
2023/06/03 05:35:51;;;;;;;0.43;0.17;;;;;;;;;;5035428;28;20036;-77
2023/06/03 05:38:17;;;;;;;0.30;0.30;;;;;;;;;;5038994;28;20091;-76
2023/06/03 05:40:43;;;;;;;0.40;0.30;;;;;;;;;;5046490;28;20033;-76
2023/06/03 05:43:09;;;;;;;0.45;0.45;;;;;;;;;;5048041;28;20029;-76
2023/06/03 05:45:35;;;;;;;1.17;0.60;;;;;;;;;;5042234;28;20025;-77
2023/06/03 05:48:01;;;;;;;0.20;0.20;;;;;;;;;;5036279;28;20040;-76
2023/06/03 05:50:27;;;;;;;2.03;1.02;;;;;;;;;;5051527;28;20086;-76
2023/06/03 05:52:55;;;;;;;0.30;0.30;;;;;;;;;;5033119;28;20075;-76
2023/06/03 05:55:22;;;;;;;0.40;0.40;;;;;;;;;;5048333;28;20021;-76
2023/06/03 05:57:48;;;;;;;0.55;0.55;;;;;;;;;;5048134;28;20040;-76
2023/06/03 06:00:14;;;;;;;0.30;0.30;;;;;;;;;;5034961;28;20717;-76
2023/06/03 06:02:41;;;;;;;0.43;0.30;;;;;;;;;;5044961;28;20063;-76
2023/06/03 06:05:07;;;;;;;1.95;0.25;;;;;;;;;;5049067;28;20020;-76
2023/06/03 06:07:33;;;;;;;0.22;0.20;;;;;;;;;;5052008;28;20031;-75
2023/06/03 06:09:59;;;;;;;0.50;0.50;;;;;;;;;;5031935;28;20021;-75
2023/06/03 06:12:25;;;;;;;0.80;0.50;;;;;;;;;;5039460;28;20167;-77
2023/06/03 06:14:51;;;;;;;0.50;0.45;;;;;;;;;;5041201;28;20029;-75
2023/06/03 06:17:18;;;;;;;0.57;0.40;;;;;;;;;;5040040;28;20026;-74
2023/06/03 06:19:44;;;;;;;0.60;0.38;;;;;;;;;;5041422;28;20060;-75
2023/06/03 06:22:11;;;;;;;0.40;0.30;;;;;;;;;;5042764;28;20035;-75
2023/06/03 06:24:37;;;;;;;0.20;0.20;;;;;;;;;;5045206;28;20033;-75
2023/06/03 06:27:03;;;;;;;1.05;0.60;;;;;;;;;;5044286;28;20544;-76
2023/06/03 06:29:29;;;;;;;0.38;0.38;;;;;;;;;;5047710;28;20071;-76
2023/06/03 06:31:55;;;;;;;1.48;0.52;;;;;;;;;;5034534;28;20036;-76
2023/06/03 06:34:21;;;;;;;0.77;0.40;;;;;;;;;;5032713;28;20033;-76
2023/06/03 06:36:49;;;;;;;0.20;0.20;;;;;;;;;;5046751;28;20388;-75
2023/06/03 06:39:30;;;;;;;0.20;0.20;;;;;;;;;;5040949;28;20025;-76
2023/06/03 06:42:04;;;;;;;0.38;0.38;;;;;;;;;;5034928;28;20866;-76
2023/06/03 06:44:31;;;;;;;0.30;0.20;;;;;;;;;;5037958;28;20094;-76
2023/06/03 06:46:58;;;;;;;0.40;0.40;;;;;;;;;;5039086;28;20044;-76
2023/06/03 06:49:24;;;;;;;0.20;0.20;;;;;;;;;;5029394;28;20033;-75
2023/06/03 06:51:52;;;;;;;0.32;0.32;;;;;;;;;;5037985;28;20021;-76
2023/06/03 06:54:18;;;;;;;0.50;0.32;;;;;;;;;;5042219;28;20033;-76
2023/06/03 06:56:44;;;;;;;0.43;0.40;;;;;;;;;;5029844;28;20117;-76
2023/06/03 06:59:10;;;;;;;0.50;0.40;;;;;;;;;;5041469;28;20017;-76
2023/06/03 07:01:36;;;;;;;0.30;0.30;;;;;;;;;;5040434;28;20043;-76
2023/06/03 07:04:06;;;;;;;0.40;0.40;;;;;;;;;;5040413;28;20009;-75
2023/06/03 07:06:32;;;;;;;0.68;0.40;;;;;;;;;;5042562;28;20041;-75
2023/06/03 07:08:57;;;;;;;0.17;0.17;;;;;;;;;;5033162;28;20025;-77
2023/06/03 07:11:23;;;;;;;0.30;0.30;;;;;;;;;;5036242;28;20033;-76
2023/06/03 07:13:52;;;;;;;0.20;0.20;;;;;;;;;;5036914;28;20024;-74
2023/06/03 07:16:18;;;;;;;2.47;0.55;;;;;;;;;;5040573;28;20033;-75
2023/06/03 07:18:44;;;;;;;0.30;0.30;;;;;;;;;;5045954;28;20036;-76
2023/06/03 07:21:10;;;;;;;0.30;0.20;;;;;;;;;;5036418;28;20033;-75
2023/06/03 07:23:36;;;;;;;0.40;0.40;;;;;;;;;;5036505;28;20056;-74
2023/06/03 07:26:04;;;;;;;0.68;0.30;;;;;;;;;;5044152;28;20052;-75
2023/06/03 07:28:31;;;;;;;0.75;0.50;;;;;;;;;;5037945;28;20033;-75
2023/06/03 07:31:05;;;;;;;0.95;0.55;;;;;;;;;;5031883;28;20403;-74
2023/06/03 07:33:34;;;;;;;1.08;0.40;;;;;;;;;;5045829;28;20045;-75
2023/06/03 07:36:01;;;;;;;0.40;0.40;;;;;;;;;;5038797;28;20116;-75
2023/06/03 07:38:37;;;;;;;0.47;0.43;;;;;;;;;;5041221;28;20120;-74
2023/06/03 07:41:03;;;;;;;0.20;0.20;;;;;;;;;;5041319;28;20029;-75
2023/06/03 07:43:29;;;;;;;0.68;0.68;;;;;;;;;;5054190;28;20078;-74
2023/06/03 07:45:55;;;;;;;0.60;0.50;;;;;;;;;;5041545;28;20089;-75
2023/06/03 07:48:21;;;;;;;0.60;0.57;;;;;;;;;;5035791;28;20108;-73
2023/06/03 07:50:50;;;;;;;0.40;0.40;;;;;;;;;;5038926;28;20067;-75
2023/06/03 07:53:21;;;;;;;0.40;0.40;;;;;;;;;;5044031;28;20021;-75
2023/06/03 07:55:47;;;;;;;1.50;1.20;;;;;;;;;;5045696;28;20025;-75
2023/06/03 07:58:15;;;;;;;0.47;0.47;;;;;;;;;;5034547;28;20048;-75
2023/06/03 08:00:45;;;;;;;0.50;0.47;;;;;;;;;;5046824;28;20025;-75
2023/06/03 08:03:25;;;;;;;0.38;0.35;;;;;;;;;;5041224;28;20033;-73
2023/06/03 08:05:51;;;;;;;3.60;0.80;;;;;;;;;;5042418;28;20388;-75
2023/06/03 08:08:21;;;;;;;0.30;0.30;;;;;;;;;;5049463;28;20029;-74
2023/06/03 08:10:51;;;;;;;0.55;0.40;;;;;;;;;;5035871;28;20026;-75
2023/06/03 08:13:18;;;;;;;0.47;0.43;;;;;;;;;;5036147;28;20396;-75
2023/06/03 08:15:44;;;;;;;1.60;0.50;;;;;;;;;;5034536;28;20029;-74
2023/06/03 08:18:13;;;;;;;1.65;0.95;;;;;;;;;;5038907;28;20061;-75
2023/06/03 08:20:39;;;;;;;0.60;0.60;;;;;;;;;;5038641;28;20029;-75
2023/06/03 08:23:05;;;;;;;0.85;0.38;;;;;;;;;;5032363;28;20029;-74
2023/06/03 08:25:31;;;;;;;0.50;0.50;;;;;;;;;;5038599;28;20021;-73
2023/06/03 08:27:57;;;;;;;0.73;0.40;;;;;;;;;;5035745;28;20135;-73
2023/06/03 08:30:24;;;;;;;1.20;0.30;;;;;;;;;;5043444;28;20975;-74
2023/06/03 08:32:51;;;;;;;0.35;0.35;;;;;;;;;;5037213;28;20067;-75
2023/06/03 08:35:20;;;;;;;0.50;0.50;;;;;;;;;;5037444;28;20550;-73
2023/06/03 08:37:46;;;;;;;0.40;0.40;;;;;;;;;;5038255;28;20128;-73
2023/06/03 08:40:13;;;;;;;0.30;0.30;;;;;;;;;;5032179;28;20048;-74
2023/06/03 08:42:43;;;;;;;2.90;0.60;;;;;;;;;;5037843;28;20029;-73
2023/06/03 08:45:15;;;;;;;1.55;0.43;;;;;;;;;;5043548;28;20027;-74
2023/06/03 08:47:47;;;;;;;0.50;0.50;;;;;;;;;;5044988;28;20025;-75
2023/06/03 08:50:16;;;;;;;3.88;0.68;;;;;;;;;;5036061;28;20108;-75
2023/06/03 08:52:45;;;;;;;3.60;0.70;;;;;;;;;;5032620;28;20033;-75
2023/06/03 08:55:12;;;;;;;0.88;0.55;;;;;;;;;;5041478;28;20025;-74
2023/06/03 08:57:45;;;;;;;2.50;0.98;;;;;;;;;;5039015;28;20030;-75
2023/06/03 09:00:12;;;;;;;1.77;0.80;;;;;;;;;;5047037;28;20039;-76
2023/06/03 09:02:39;;;;;;;1.40;0.90;;;;;;;;;;5042925;28;20029;-76
2023/06/03 09:05:06;;;;;;;0.30;0.30;;;;;;;;;;5037496;28;20025;-73
2023/06/03 09:08:03;;;;;;;0.63;0.63;;;;;;;;;;5036431;28;20029;-74
2023/06/03 09:10:31;;;;;;;1.23;0.43;;;;;;;;;;5039781;28;20403;-74
2023/06/03 09:12:58;;;;;;;2.63;0.25;;;;;;;;;;5049512;28;20112;-74
2023/06/03 09:15:24;;;;;;;2.28;0.50;;;;;;;;;;5049590;28;20029;-73
2023/06/03 09:17:51;;;;;;;1.15;0.45;;;;;;;;;;5047602;28;20472;-74
2023/06/03 09:20:16;;;;;;;0.40;0.40;;;;;;;;;;5041071;28;20036;-74
2023/06/03 09:22:43;;;;;;;0.22;0.20;;;;;;;;;;5045782;28;20495;-74
2023/06/03 09:25:09;;;;;;;0.60;0.50;;;;;;;;;;5047676;28;20051;-74
2023/06/03 09:27:35;;;;;;;0.32;0.32;;;;;;;;;;5049582;28;20028;-74
2023/06/03 09:30:05;;;;;;;0.52;0.52;;;;;;;;;;5035130;28;20021;-73
2023/06/03 09:32:31;;;;;;;0.45;0.35;;;;;;;;;;5048861;28;20112;-73
2023/06/03 09:34:57;;;;;;;3.67;0.50;;;;;;;;;;5049132;28;20033;-74
2023/06/03 09:37:24;;;;;;;0.30;0.30;;;;;;;;;;5045407;28;20032;-74
2023/06/03 09:39:50;;;;;;;1.38;0.45;;;;;;;;;;5049106;28;20090;-74
2023/06/03 09:42:16;;;;;;;1.17;0.63;;;;;;;;;;5048962;28;20253;-74
2023/06/03 09:44:43;;;;;;;1.05;0.50;;;;;;;;;;5049256;28;20024;-74
2023/06/03 09:47:11;;;;;;;0.98;0.63;;;;;;;;;;5045850;28;20392;-74
2023/06/03 09:49:37;;;;;;;0.50;0.50;;;;;;;;;;5042664;28;20111;-74
2023/06/03 09:52:07;;;;;;;0.25;0.25;;;;;;;;;;5049080;28;20540;-74
2023/06/03 09:54:33;;;;;;;1.15;0.88;;;;;;;;;;5043754;28;20636;-73
2023/06/03 09:57:12;;;;;;;0.30;0.30;;;;;;;;;;5030449;28;20124;-75
2023/06/03 09:59:43;;;;;;;0.52;0.45;;;;;;;;;;5040142;28;20128;-80
2023/06/03 10:02:12;;;;;;;0.43;0.38;;;;;;;;;;5030538;28;20021;-77
2023/06/03 10:04:39;;;;;;;0.38;0.38;;;;;;;;;;5031001;28;20223;-84
2023/06/03 10:07:11;;;;;;;0.77;0.52;;;;;;;;;;5036255;28;20378;-81
2023/06/03 10:09:38;;;;;;;1.27;0.40;;;;;;;;;;5038656;28;20036;-79
2023/06/03 10:12:05;;;;;;;5.72;0.60;;;;;;;;;;5035120;28;20171;-78
2023/06/03 10:14:31;;;;;;;0.57;0.50;;;;;;;;;;5040061;28;20031;-74
2023/06/03 10:17:03;;;;;;;0.85;0.45;;;;;;;;;;5036315;28;20029;-76
2023/06/03 10:19:29;;;;;;;1.05;0.75;;;;;;;;;;5038619;28;20029;-76
2023/06/03 10:21:56;;;;;;;2.40;0.28;;;;;;;;;;5039821;28;20036;-76
2023/06/03 10:24:22;;;;;;;1.15;0.47;;;;;;;;;;5042352;28;20032;-77
2023/06/03 10:26:49;;;;;;;0.43;0.28;;;;;;;;;;5041319;28;20024;-76
2023/06/03 10:29:16;;;;;;;2.25;0.50;;;;;;;;;;5041420;28;20029;-75
2023/06/03 10:31:43;;;;;;;0.50;0.40;;;;;;;;;;5039280;28;20056;-76
2023/06/03 10:34:09;;;;;;;0.85;0.55;;;;;;;;;;5037990;28;20090;-76
2023/06/03 10:36:35;;;;;;;1.25;0.38;;;;;;;;;;5040053;28;20025;-75
2023/06/03 10:39:04;;;;;;;0.65;0.40;;;;;;;;;;5042153;28;20051;-76
2023/06/03 10:41:30;;;;;;;0.50;0.40;;;;;;;;;;5039426;28;20033;-76
2023/06/03 10:43:56;;;;;;;0.40;0.40;;;;;;;;;;5038567;28;20036;-76
2023/06/03 10:46:22;;;;;;;0.57;0.57;;;;;;;;;;5038279;28;20039;-76
2023/06/03 10:48:48;;;;;;;0.88;0.40;;;;;;;;;;5038896;28;20029;-76
2023/06/03 10:51:30;;;;;;;2.65;0.50;;;;;;;;;;5041782;28;20033;-76
2023/06/03 10:53:59;;;;;;;0.57;0.43;;;;;;;;;;5032238;28;20079;-75
2023/06/03 10:56:30;;;;;;;0.40;0.40;;;;;;;;;;5035316;28;20056;-75
2023/06/03 10:59:08;;;;;;;1.35;0.63;;;;;;;;;;5035449;28;20033;-76
2023/06/03 11:01:53;;;;;;;2.10;0.65;;;;;;;;;;5041280;28;20051;-76
2023/06/03 11:04:19;;;;;;;1.10;0.55;;;;;;;;;;5041185;28;20159;-76
2023/06/03 11:06:45;;;;;;;0.55;0.43;;;;;;;;;;5036281;28;20065;-75
2023/06/03 11:09:16;;;;;;;0.40;0.40;;;;;;;;;;5039022;28;20536;-79
2023/06/03 11:11:42;;;;;;;0.50;0.50;;;;;;;;;;5043449;28;20697;-78
2023/06/03 11:14:08;;;;;;;0.40;0.40;;;;;;;;;;5042875;28;20044;-79
2023/06/03 11:16:53;;;;;;;0.60;0.50;;;;;;;;;;5046499;28;20036;-79
2023/06/03 11:19:30;;;;;;;0.28;0.28;;;;;;;;;;5051539;28;20162;-77
2023/06/03 11:21:57;;;;;;;3.22;0.55;;;;;;;;;;5048889;28;20029;-76
2023/06/03 11:24:38;;;;;;;1.35;0.47;;;;;;;;;;5031033;28;20029;-77
2023/06/03 11:27:12;;;;;;;1.05;0.40;;;;;;;;;;5046963;28;20025;-78
2023/06/03 11:29:45;;;;;;;0.32;0.32;;;;;;;;;;5046099;28;20038;-76
2023/06/03 11:32:17;;;;;;;0.60;0.30;;;;;;;;;;5044740;28;20029;-76
2023/06/03 11:34:44;;;;;;;1.48;0.50;;;;;;;;;;5044445;28;20024;-76
2023/06/03 11:37:19;;;;;;;1.88;0.47;;;;;;;;;;5041886;28;20101;-76
2023/06/03 11:40:05;;;;;;;2.10;0.50;;;;;;;;;;5057178;28;20059;-77
2023/06/03 11:42:31;;;;;;;2.58;0.60;;;;;;;;;;5041534;28;20102;-76
2023/06/03 11:45:29;;;;;;;1.02;0.55;;;;;;;;;;5048387;28;20029;-76
2023/06/03 11:47:56;;;;;;;2.67;0.47;;;;;;;;;;5037398;28;20029;-77
2023/06/03 11:50:29;;;;;;;2.03;0.57;;;;;;;;;;5046164;28;20025;-76
2023/06/03 11:52:55;;;;;;;0.93;0.43;;;;;;;;;;5045030;28;20037;-77
2023/06/03 11:55:24;;;;;;;1.98;0.55;;;;;;;;;;5042140;28;20079;-77
2023/06/03 11:57:50;;;;;;;1.88;0.50;;;;;;;;;;5042629;28;20116;-76
2023/06/03 12:00:23;;;;;;;0.55;0.50;;;;;;;;;;5039738;28;20167;-78
2023/06/03 12:02:49;;;;;;;0.70;0.60;;;;;;;;;;5033398;28;20060;-77
2023/06/03 12:05:15;;;;;;;0.65;0.65;;;;;;;;;;5040722;28;20029;-76
2023/06/03 12:07:44;;;;;;;0.60;0.60;;;;;;;;;;5038614;28;20024;-76
2023/06/03 12:10:11;;;;;;;2.25;0.75;;;;;;;;;;5043170;28;20491;-77
2023/06/03 12:12:49;;;;;;;0.52;0.50;;;;;;;;;;5037479;28;20483;-76
2023/06/03 12:15:28;;;;;;;0.68;0.63;;;;;;;;;;5031242;28;20400;-77
2023/06/03 12:17:54;;;;;;;2.05;0.63;;;;;;;;;;5038496;28;20052;-76
2023/06/03 12:20:24;;;;;;;1.20;0.70;;;;;;;;;;5034233;28;20020;-76
2023/06/03 12:22:50;;;;;;;0.40;0.40;;;;;;;;;;5036840;28;20032;-76
2023/06/03 12:25:20;;;;;;;1.25;0.50;;;;;;;;;;5035826;28;20033;-76
2023/06/03 12:27:48;;;;;;;3.08;0.82;;;;;;;;;;5031660;28;20025;-76
2023/06/03 12:30:28;;;;;;;1.10;1.00;;;;;;;;;;5042747;28;20136;-76
2023/06/03 12:32:57;;;;;;;0.50;0.50;;;;;;;;;;5041992;28;20025;-76
2023/06/03 12:35:23;;;;;;;0.40;0.40;;;;;;;;;;5040571;28;20041;-76
2023/06/03 12:38:02;;;;;;;2.05;0.70;;;;;;;;;;5031483;28;20033;-72
2023/06/03 12:40:28;;;;;;;0.60;0.60;;;;;;;;;;5031938;28;20055;-80
2023/06/03 12:42:56;;;;;;;0.43;0.43;;;;;;;;;;5033927;28;20272;-81
2023/06/03 12:45:25;;;;;;;0.93;0.50;;;;;;;;;;5040206;28;20031;-80
2023/06/03 12:47:52;;;;;;;1.05;0.77;;;;;;;;;;5038845;28;20100;-81
2023/06/03 12:50:20;;;;;;;0.85;0.30;;;;;;;;;;5042542;28;20021;-81
2023/06/03 12:52:46;;;;;;;0.50;0.45;;;;;;;;;;5032209;28;20156;-80
2023/06/03 12:55:14;;;;;;;1.10;0.50;;;;;;;;;;5038002;28;20555;-82
2023/06/03 12:57:41;;;;;;;3.28;0.60;;;;;;;;;;5045948;28;20439;-81
2023/06/03 13:00:08;;;;;;;1.42;0.50;;;;;;;;;;5033649;28;20037;-80
2023/06/03 13:02:36;;;;;;;0.40;0.40;;;;;;;;;;5039891;28;20025;-81
2023/06/03 13:05:02;;;;;;;0.68;0.60;;;;;;;;;;5040450;28;20029;-83
2023/06/03 13:07:28;;;;;;;1.80;0.50;;;;;;;;;;5042283;28;20040;-81
2023/06/03 13:10:00;;;;;;;0.60;0.60;;;;;;;;;;5040563;28;20529;-81
2023/06/03 13:12:26;;;;;;;0.50;0.50;;;;;;;;;;5042158;28;20099;-73
2023/06/03 13:14:52;;;;;;;0.57;0.40;;;;;;;;;;5034725;28;20029;-74
2023/06/03 13:17:18;;;;;;;0.68;0.52;;;;;;;;;;5039842;28;20035;-74
2023/06/03 13:19:47;;;;;;;0.73;0.50;;;;;;;;;;5038927;28;20055;-73
2023/06/03 13:22:13;;;;;;;0.38;0.35;;;;;;;;;;5039137;28;20032;-73
2023/06/03 13:24:39;;;;;;;1.02;0.70;;;;;;;;;;5039254;28;20078;-73
2023/06/03 13:27:05;;;;;;;0.70;0.70;;;;;;;;;;5033108;28;20435;-73
2023/06/03 13:29:31;;;;;;;0.60;0.60;;;;;;;;;;5041793;28;20029;-73
2023/06/03 13:31:58;;;;;;;0.47;0.47;;;;;;;;;;5035282;28;21217;-73
2023/06/03 13:34:24;;;;;;;1.58;0.50;;;;;;;;;;5038499;28;20033;-73
2023/06/03 13:36:50;;;;;;;0.30;0.30;;;;;;;;;;5032535;28;20055;-83
2023/06/03 13:39:17;;;;;;;0.40;0.30;;;;;;;;;;5031637;28;20599;-85
2023/06/03 13:42:02;;;;;;;0.63;0.30;;;;;;;;;;5037281;28;20271;-76
2023/06/03 13:44:31;;;;;;;1.17;0.40;;;;;;;;;;5044086;28;20037;-80
2023/06/03 13:46:58;;;;;;;0.90;0.70;;;;;;;;;;5042087;28;20091;-82
2023/06/03 13:49:24;;;;;;;0.50;0.40;;;;;;;;;;5036569;28;20408;-78
2023/06/03 13:51:50;;;;;;;0.40;0.40;;;;;;;;;;5037852;28;20021;-78
2023/06/03 13:54:16;;;;;;;3.65;0.47;;;;;;;;;;5035936;28;20088;-78
2023/06/03 13:56:44;;;;;;;1.25;0.55;;;;;;;;;;5036206;28;20021;-78
2023/06/03 13:59:10;;;;;;;2.05;1.27;;;;;;;;;;5032484;28;20026;-78
2023/06/03 14:01:36;;;;;;;3.05;1.23;;;;;;;;;;5031377;28;20296;-79
2023/06/03 14:04:02;;;;;;;1.83;0.90;;;;;;;;;;5039946;28;20037;-78
2023/06/03 14:06:28;;;;;;;1.85;1.38;;;;;;;;;;5045273;28;20041;-78
2023/06/03 14:08:54;;;;;;;5.13;2.08;;;;;;;;;;5048705;28;20219;-78
2023/06/03 14:11:20;;;;;;;4.78;2.67;;;;;;;;;;5040095;28;20104;-78
2023/06/03 14:13:46;;;;;;;5.55;2.95;;;;;;;;;;5038686;28;20399;-78
2023/06/03 14:16:12;;;;;;;5.72;2.60;;;;;;;;;;5040403;28;20026;-79
2023/06/03 14:18:38;;;;;;;8.00;4.10;;;;;;;;;;5042355;28;20024;-79
2023/06/03 14:21:04;;;;;;;7.75;3.90;;;;;;;;;;5046918;28;20087;-79
2023/06/03 14:23:30;;;;;;;9.70;3.97;;;;;;;;;;5037687;28;20123;-78
2023/06/03 14:25:56;;;;;;;6.97;3.67;;;;;;;;;;5039254;28;20051;-78
2023/06/03 14:28:22;;;;;;;7.30;3.20;;;;;;;;;;5061774;28;20029;-77
2023/06/03 14:30:48;;;;;;;8.73;3.88;;;;;;;;;;5036633;28;20030;-78
2023/06/03 14:33:15;;;;;;;6.43;3.70;;;;;;;;;;5036167;28;20021;-78
2023/06/03 14:35:41;;;;;;;6.75;3.42;;;;;;;;;;5046346;28;20048;-79
2023/06/03 14:38:07;;;;;;;6.88;3.53;;;;;;;;;;5039847;28;20108;-78
2023/06/03 14:40:34;;;;;;;7.53;3.50;;;;;;;;;;5048078;28;20122;-78
2023/06/03 14:43:00;;;;;;;6.28;3.20;;;;;;;;;;5048888;28;20484;-75
2023/06/03 14:45:26;;;;;;;5.65;2.97;;;;;;;;;;5047775;28;20040;-76
2023/06/03 14:47:52;;;;;;;6.68;3.58;;;;;;;;;;5041901;28;20161;-76